Data Entry Status of Reservoirs as on 18/11/2019 (Average Data)
S.NO Unit Name District Reservoir Name Current Capacity
in T.M.C.
Current Level
in Feet
Inflow
in Cusecs
Outflow
in Cusecs
Last Entry Time
Updated
1 Boggulavagu 0.361 158.95 0.0 40.0 18/11/2019 09:24
2 CE , Godavari Delta Systems, HQ : Dowlaiswaram East Godavari Godavari Delta System 2.93 45.0 30399.0 30399.0 18/11/2019 09:11
3 CE , Godavari Delta Systems, HQ : Dowlaiswaram East Godavari YELERU 23.56 283.1 600.0 500.0 18/11/2019 09:05
4 CE , Krishna Delta System, HQ : Vijayawada Guntur Dr.KLRS Pulichintala 43.06 173.23 987.0 6625.0 18/11/2019 09:04
5 CE , Krishna Delta System, HQ : Vijayawada Krishna Krishna Delta System 3.07 57.05 13717.0 13717.0 18/11/2019 09:10
6 CE Minor, Vijayawada Chittor Pedderu 0.287 1559.74 0.0 0.0 18/11/2019 06:00
7 CE , North Coast, HQ : Visakhapatnam Srikakulam Madduvalasa 2.949 211.81 629.0 510.0 18/11/2019 06:00
8 CE , North Coast, HQ : Visakhapatnam Srikakulam Vamshadhara 0.612 125.0 3710.0 3710.0 18/11/2019 09:09
9 CE , North Coast, HQ : Visakhapatnam Vizianagaram Thotapalli Reservoir 1.955 341.54 1942.0 1745.0 18/11/2019 06:00
10 CE , (Projects) Irrigation, Kadapa, HQ : Kadapa Kadapa SPVB Reservoir(Brahmamgari Mattam) 5.901 656.062 1044.0 690.0 18/11/2019 06:00
11 CE , (Projects) Irrigation, Kurnool, HQ : Kurnool Kurnool ALAGANURU BALANCING RESERVOIR 1.24 854.768 821.0 10.0 18/11/2019 07:00
12 CE , (Projects) Irrigation, Kurnool, HQ : Kurnool Kurnool Gajuladinne Project 3.912 1235.8542 140.0 140.0 18/11/2019 06:00
13 CE , (Projects) Irrigation, Kurnool, HQ : Kurnool Kurnool Gorakallu 7.231 819.88 4394.0 4537.0 18/11/2019 06:00
14 CE , (Projects) Irrigation, Kurnool, HQ : Kurnool Kurnool SRISAILAM 199.74 882.1 23142.0 28486.0 18/11/2019 09:04
15 CE , (Projects) Irrigation, Kurnool, HQ : Kurnool Kurnool Sunkesula 1.195 957.68 1058.0 1058.0 18/11/2019 06:00
16 CE , (Projects) Irrigation, Kurnool, HQ : Kurnool Kurnool Veligodu Balancing Reservoir 16.34 867.78 1800.0 3320.0 18/11/2019 09:12
17 CE , (Projects) Ongole, HQ : Ongole Guntur NAGARJUNA SAGAR 306.99 588.3 19115.0 19115.0 18/11/2019 09:05
18 CE , TGP Tirupathi, HQ : Tirupati Nellore Kalangi Reservoir Project 0.084 214.0 6.0 6.0 18/11/2019 06:00
19 CE , TGP Tirupathi, HQ : Tirupati Nellore KANDALERU 45.88 262.41 3606.0 3840.0 18/11/2019 09:13
20 CE , TGP Tirupathi, HQ : Tirupati Nellore SOMASILA 68.99 325.94 7171.0 7208.0 18/11/2019 09:12
21 ENC Irrigation, HQ: Vijayawada Ananthapur PABR 3.117 1413.86 670.0 90.0 18/11/2019 08:00
22 ENC Irrigation, HQ: Vijayawada Kadapa Chitravathi Balancing Reservoir 6.5651 966.65 450.0 280.0 18/11/2019 06:00
23 Flood Monitoring Cell, Vijayawada Karnataka TUNGABHADRA 98.24 1632.32 3662.0 10341.0 18/11/2019 09:03
24 Flood Monitoring Cell, Vijayawada Maharastra Jaikwad 102.73 1522.0 1132.0 1132.0 18/11/2019 09:09
25 Flood Monitoring Cell, Vijayawada Maharastra Ujjaini 117.24 1630.0 1933.0 1601.0 18/11/2019 09:02
26 Flood Monitoring Cell, Vijayawada Telangana JURALA 9.6 1044.92 18336.0 18336.0 18/11/2019 09:03
27 Flood Monitoring Cell, Vijayawada Telangana Sri Pada Yellampally 11.23 473.36 0.0 19072.0 18/11/2019 09:13
28 Flood Monitoring Cell, Vijayawada Telangana SRI RAM SAGAR 89.76 1090.9 1590.0 577.0 18/11/2019 09:10
Not Updated
29 CE , Godavari Delta Systems, HQ : Dowlaiswaram East Godavari Maddigedda Reservoir Project 0.13 593.18 35.0 0.0 13/07/2019 07:00
30 CE , Godavari Delta Systems, HQ : Dowlaiswaram East Godavari Pampa Reservoir 0.0167 82.5 30.0 0.0 17/07/2019 10:45
31 CE , Godavari Delta Systems, HQ : Dowlaiswaram East Godavari Subbareddy Sagar 0.0538 255.9 111.0 0.0 13/07/2019 07:00
32 CE , Godavari Delta Systems, HQ : Dowlaiswaram Krishna GONELAVAGU RESERVOIR 0.732 335.61 0.0 66.0 08/02/2019 06:00
33 CE , Godavari Delta Systems, HQ : Dowlaiswaram West Godavari Kovvada Kalva 0.178 282.8 60.0 15.0 21/09/2019 06:00
34 CE , Godavari Delta Systems, HQ : Dowlaiswaram West Godavari Tammileru 0.362 328.1 0.0 0.0 26/08/2019 14:51
35 CE , Godavari Delta Systems, HQ : Dowlaiswaram West Godavari Yerra Kalva 1.75 261.64 70.0 70.0 24/09/2019 06:00
36 CE , Krishna Delta System, HQ : Vijayawada Krishna Muniyeru Anicut 0.01 217.81 100.0 0.0 30/01/2019 06:00
37 CE Minor, Vijayawada Ananthapur Upper Pennar Anicut 0.0 1716.56 0.0 0.0 26/08/2019 14:59
38 CE Minor, Vijayawada Chittor KALYANI DAM 0.079 842.65 0.0 3.1 05/09/2019 09:10
39 CE Minor, Vijayawada Nellore Nellore Anicut 0.01 10.6 0.0 0.0 05/10/2018 06:00
40 CE Minor, Vijayawada West Godavari Jalleru 0.31 711.29 0.0 0.0 31/10/2018 16:00
41 CE , North Coast, HQ : Visakhapatnam Srikakulam Narayanapuram Anicut 0.0 88.0 50.0 50.0 02/05/2019 07:00
42 CE , North Coast, HQ : Visakhapatnam Visahakapatnam Konam Reservoir Project 0.085 297.496 2.0 30.0 27/03/2019 06:00
43 CE , North Coast, HQ : Visakhapatnam Visahakapatnam Mahadrigadda Reservoir 0.228 50.2 0.0 0.0 22/10/2018 06:00
44 CE , North Coast, HQ : Visakhapatnam Visahakapatnam Raiwada Reservoir Project 0.873 339.534 112.85 193.87 29/08/2019 06:00
45 CE , North Coast, HQ : Visakhapatnam Visahakapatnam Tenneti Viswanadham Pedderu 0.192 439.028 0.0 20.0 15/02/2019 06:00
46 CE , North Coast, HQ : Visakhapatnam Visahakapatnam Thandava Reservoir Project 0.27 345.5 37.0 0.0 06/12/2018 06:00
47 CE , North Coast, HQ : Visakhapatnam Vizianagaram Andra Reservoir 0.00589 439.81 0.0 0.0 26/04/2019 07:20
48 CE , North Coast, HQ : Visakhapatnam Vizianagaram Peddagadda 0.233 673.7532 7.0 85.0 26/08/2019 15:42
49 CE , North Coast, HQ : Visakhapatnam Vizianagaram Thatipudi Reservoir 0.735 266.699 135.0 20.48 26/08/2019 15:40
50 CE , North Coast, HQ : Visakhapatnam Vizianagaram Vengalarayasagar Project 0.989 519.52 275.0 250.0 26/08/2019 15:38
51 CE , North Coast, HQ : Visakhapatnam Vizianagaram Vottigedda Reservoir 0.062 369.2 0.0 0.0 28/06/2019 06:00
52 CE, (Projects) HNSS, Ananthapur Ananthapur Bhairavani Tippa 0.0 1629.1 0.0 0.0 26/08/2019 14:58
53 CE, (Projects) HNSS, Ananthapur Ananthapur CHAGALLU BALANCING RESERVOIR 0.0 0.0 0.0 0.0 06/06/2019 08:25
54 CE, (Projects) HNSS, Ananthapur Ananthapur CHENNARAYA SWAMI GUDI PROJECT NA NA NA NA NA
55 CE, (Projects) HNSS, Ananthapur Ananthapur Jeedipalli Reservoir 1.467 1520.2 920.0 800.0 24/09/2019 06:00
56 CE, (Projects) HNSS, Ananthapur Ananthapur Mid Pennar 0.161 1129.9 0.0 0.0 31/07/2019 08:00
57 CE, (Projects) HNSS, Ananthapur Ananthapur Yogivemana Reservoir Project 0.336 1238.32 102.0 0.0 10/06/2019 07:15
58 CE, (Projects) HNSS, Ananthapur Kurnool krishnagiri 0.152 1209.664 30.0 30.0 09/11/2019 06:00
59 CE , (Projects) Irrigation, Kadapa, HQ : Kadapa Kadapa Annamayya 0.378 631.7257 0.0 4.0 26/08/2019 14:55
60 CE , (Projects) Irrigation, Kadapa, HQ : Kadapa Kadapa Badvel Tank NA NA NA NA NA
61 CE , (Projects) Irrigation, Kadapa, HQ : Kadapa Kadapa Buggavanka Reservoir 0.244 592.88 60.0 115.0 16/11/2019 09:00
62 CE , (Projects) Irrigation, Kadapa, HQ : Kadapa Kadapa GANDIKOTA RESERVOIR 6.66 205.35 7893.0 3060.0 29/08/2019 07:00
63 CE , (Projects) Irrigation, Kadapa, HQ : Kadapa Kadapa Jerrikona Reservoir NA NA NA NA NA
64 CE , (Projects) Irrigation, Kadapa, HQ : Kadapa Kadapa Mylavaram reservoir 0.948 624.573 0.0 159.0 02/01/2019 10:00
65 CE , (Projects) Irrigation, Kadapa, HQ : Kadapa Kadapa Paidipalem Reservoir 1.606 858.25 0.0 200.0 26/02/2019 07:00
66 CE , (Projects) Irrigation, Kadapa, HQ : Kadapa Kadapa Subsidary Reservoir II of TGP Main Canal 1.1098 705.053 0.0 20.0 27/12/2018 07:30
67 CE , (Projects) Irrigation, Kadapa, HQ : Kadapa Kadapa Subsidary Reservoir I of TGP Main Canal 0.62137 697.671 0.0 20.0 29/12/2018 07:30
68 CE , (Projects) Irrigation, Kadapa, HQ : Kadapa Kadapa Upper Sagileru Anicut 0.0 0.0 0.0 0.0 26/10/2018 06:00
69 CE , (Projects) Irrigation, Kadapa, HQ : Kadapa Kadapa Veligallu Project 1.127 1339.05 0.0 0.0 16/11/2019 09:15
70 CE , (Projects) Irrigation, Kurnool, HQ : Kurnool Kurnool Owk Reservoir 3.09 735.015 5884.0 6678.0 14/10/2019 06:00
71 CE , (Projects) Irrigation, Kurnool, HQ : Kurnool Kurnool Varadaraja Swamy Gudi Project 0.0142 1157.32 0.0 0.0 14/11/2018 10:00
72 CE , (Projects) Irrigation, Kurnool, HQ : Kurnool Kurnool ZURRERU RESERVOIR NA NA NA NA NA
73 CE , (Projects) Ongole, HQ : Ongole Prakasam Buggavagu Resrvoir 2.61 465.9 2915.0 2027.0 27/03/2019 06:00
74 CE , (Projects) Ongole, HQ : Ongole Prakasam Cumbum Tank 0.0 645.9317 0.0 0.0 26/08/2019 15:47
75 CE , (Projects) Ongole, HQ : Ongole Prakasam Gundlakamma Project 0.483 58.87 0.0 0.0 16/07/2019 09:00
76 CE , (Projects) Ongole, HQ : Ongole Prakasam Mopadu Reservoir 0.0 0.0 0.0 0.0 27/09/2019 06:10
77 CE , (Projects) Ongole, HQ : Ongole Prakasam Paleru Bitragunta Anicut System 0.0 0.0 0.0 0.0 03/03/2019 07:00
78 CE , (Projects) Ongole, HQ : Ongole Prakasam Rallapadu Reservoir 0.358 124.67 50.0 0.0 11/11/2019 06:00
79 CE , (Projects) Ongole, HQ : Ongole Prakasam Ramatheertham Balancing Reservoir 0.359 76.1 42.0 243.0 10/11/2016 08:00
80 CE , (Projects) Ongole, HQ : Ongole Prakasam Veeraraghavunikota Anicut System 0.0 0.0 0.0 0.0 10/07/2019 07:00
81 CE , TGP Tirupathi, HQ : Tirupati Bahuda Reservoir Project 0.058 1988.8 0.0 0.0 11/11/2019 10:00
82 CE , TGP Tirupathi, HQ : Tirupati Chittor Araniar Project 0.026 253.15 0.0 0.0 27/06/2019 06:00
83 CE , TGP Tirupathi, HQ : Tirupati Chittor Krishnapuram Reservoir 0.072 679.6 38.0 0.0 22/11/2018 18:00
84 CE , TGP Tirupathi, HQ : Tirupati Chittor Mallimadugu Reservoir Project 0.107 362.5 180.0 40.0 01/11/2019 06:00
85 CE , TGP Tirupathi, HQ : Tirupati Nellore Gandipalem 0.01 450.72 0.0 0.0 26/08/2019 15:49
86 CE , TGP Tirupathi, HQ : Tirupati Nellore Kanigir Reservoir 2.06 95.22 1185.0 1160.0 12/12/2018 10:00
87 CE , TGP Tirupathi, HQ : Tirupati Nellore Nellore Tank 0.317 64.22 150.0 0.0 24/11/2018 07:00
88 CE , TGP Tirupathi, HQ : Tirupati Nellore Survepalli Reservoir 0.4 19.72 100.0 200.0 11/03/2019 08:51
89 Enc Dowaleshwaram East Godavari Suram Palem 0.2553 343.33 20.57 61.31 02/11/2019 06:00
90 ENC Irrigation, HQ: Vijayawada Nellore Swarnamukhi Barrage 0.0 19.78 0.0 0.0 02/10/2018 14:00
91 ENC PIP East Godavari Bhupati Palem 0.65 669.29 148.124 148.124 12/12/2018 06:00
92 ENC PIP East Godavari Musurimalli 0.56 378.93 400.0 550.0 26/08/2019 14:44
93 Flood Monitoring Cell, Vijayawada Karnataka ALMATTI 128.19 1704.72 5298.0 5298.0 16/11/2019 11:59
94 Flood Monitoring Cell, Vijayawada Karnataka NARAYANAPUR 37.17 1614.4 5120.0 8739.0 16/11/2019 11:59

Data Entry Status of Reservoirs as on 18/11/2019 (Instant Data)
S.NO Unit District Reservoir Name Current Capacity
in T.M.C.
Current Level
in Feet
Inflow
in Cusecs
Outflow
in Cusecs
Last Entry Time
Updated
1 CE , Krishna Delta System, HQ : Vijayawada Guntur Dr.KLRS Pulichintala 42.8661 173.095 700.0 6500.0 18/11/2019 15:00
2 CE Minor, Vijayawada Chittor Pedderu 0.287 1559.74 0.0 0.0 18/11/2019 08:00
3 CE , North Coast, HQ : Visakhapatnam Srikakulam Madduvalasa 2.949 211.81 629.0 510.0 18/11/2019 06:00
4 CE , North Coast, HQ : Visakhapatnam Visahakapatnam Mahadrigadda Reservoir 0.918 59.7 0.0 0.0 18/11/2019 06:00
5 CE , North Coast, HQ : Visakhapatnam Vizianagaram Thotapalli Reservoir 1.955 341.54 1850.0 700.0 18/11/2019 06:00
6 CE, (Projects) HNSS, Ananthapur Ananthapur Bhairavani Tippa 201.44 1637.72 0.0 0.0 18/11/2019 00:00
7 CE , (Projects) Irrigation, Kadapa, HQ : Kadapa Kadapa SPVB Reservoir(Brahmamgari Mattam) 5.901 656.062 1044.0 920.0 18/11/2019 07:00
8 CE , (Projects) Irrigation, Kurnool, HQ : Kurnool Kurnool Gajuladinne Project 3.912 1235.8542 140.0 140.0 18/11/2019 06:00
9 CE , (Projects) Irrigation, Kurnool, HQ : Kurnool Kurnool SRISAILAM 198.812 882.0 8789.0 10426.0 18/11/2019 14:00
10 CE , (Projects) Ongole, HQ : Ongole Guntur NAGARJUNA SAGAR 307.2834 588.4 44050.0 16680.0 18/11/2019 15:00
Not Updated
11 Boggulavagu NA NA NA NA NA
12 CE , Godavari Delta Systems, HQ : Dowlaiswaram East Godavari Maddigedda Reservoir Project 0.361 610.73 40.0 4.0 17/12/2018 07:00
13 CE , Godavari Delta Systems, HQ : Dowlaiswaram East Godavari Pampa Reservoir 0.015 82.1 0.0 0.0 08/07/2019 08:00
14 CE , Godavari Delta Systems, HQ : Dowlaiswaram East Godavari Subbareddy Sagar 0.0253 247.31 8.0 0.0 17/12/2018 07:00
15 CE , Godavari Delta Systems, HQ : Dowlaiswaram East Godavari YELERU 12.46 259.62 11.0 269.0 02/05/2019 07:00
16 CE , Godavari Delta Systems, HQ : Dowlaiswaram Krishna GONELAVAGU RESERVOIR 609.0 337.61 0.0 0.0 30/11/2018 06:00
17 CE , Godavari Delta Systems, HQ : Dowlaiswaram West Godavari Kovvada Kalva 0.178 282.8 60.0 15.0 21/09/2019 12:00
18 CE , Godavari Delta Systems, HQ : Dowlaiswaram West Godavari Tammileru 318.0 339.25 1173.0 0.0 04/08/2019 00:00
19 CE , Godavari Delta Systems, HQ : Dowlaiswaram West Godavari Yerra Kalva 1.75 261.64 70.0 70.0 24/09/2019 06:00
20 CE , Krishna Delta System, HQ : Vijayawada Krishna Muniyeru Anicut 0.03 221.3 928.0 678.0 02/09/2018 15:03
21 CE Minor, Vijayawada Ananthapur Upper Pennar Anicut NA NA NA NA NA
22 CE Minor, Vijayawada Chittor KALYANI DAM NA NA NA NA NA
23 CE Minor, Vijayawada Nellore Nellore Anicut 0.0 19.78 0.0 0.0 03/09/2018 01:00
24 CE Minor, Vijayawada West Godavari Jalleru 0.447 709.646 0.0 0.0 20/09/2019 06:00
25 CE , North Coast, HQ : Visakhapatnam Srikakulam Narayanapuram Anicut 0.0 88.0 50.0 50.0 02/05/2019 07:00
26 CE , North Coast, HQ : Visakhapatnam Visahakapatnam Konam Reservoir Project 0.085 297.496 0.0 30.0 27/03/2019 08:00
27 CE , North Coast, HQ : Visakhapatnam Visahakapatnam Raiwada Reservoir Project 0.293 333.7 50.0 50.0 07/12/2018 15:00
28 CE , North Coast, HQ : Visakhapatnam Visahakapatnam Tenneti Viswanadham Pedderu 0.244 439.52 52.0 0.0 24/12/2018 11:00
29 CE , North Coast, HQ : Visakhapatnam Visahakapatnam Thandava Reservoir Project 0.578 351.05 90.0 0.0 02/11/2018 12:00
30 CE , North Coast, HQ : Visakhapatnam Vizianagaram Andra Reservoir 0.00589 439.81 0.0 0.0 26/04/2019 07:00
31 CE , North Coast, HQ : Visakhapatnam Vizianagaram Peddagadda 0.255 674.93 5.0 5.0 18/02/2019 10:00
32 CE , North Coast, HQ : Visakhapatnam Vizianagaram Thatipudi Reservoir 2.9 293.5 140.48 140.48 10/11/2016 10:44
33 CE , North Coast, HQ : Visakhapatnam Vizianagaram Vengalarayasagar Project 0.56 510.5611 0.0 0.0 02/07/2019 10:00
34 CE , North Coast, HQ : Visakhapatnam Vizianagaram Vottigedda Reservoir 0.062 369.2 0.0 0.0 28/06/2019 10:00
35 CE, (Projects) HNSS, Ananthapur Ananthapur CHAGALLU BALANCING RESERVOIR NA NA NA NA NA
36 CE, (Projects) HNSS, Ananthapur Ananthapur CHENNARAYA SWAMI GUDI PROJECT NA NA NA NA NA
37 CE, (Projects) HNSS, Ananthapur Ananthapur Jeedipalli Reservoir 1.467 1520.2 920.0 800.0 24/09/2019 06:00
38 CE, (Projects) HNSS, Ananthapur Ananthapur Mid Pennar 0.462 1147.0 0.0 4.0 13/02/2019 15:00
39 CE, (Projects) HNSS, Ananthapur Ananthapur Yogivemana Reservoir Project 0.55 1246.65 0.0 0.0 25/09/2018 06:00
40 CE, (Projects) HNSS, Ananthapur Kurnool krishnagiri NA NA NA NA NA
41 CE , (Projects) Irrigation, Kadapa, HQ : Kadapa Kadapa Annamayya 0.56513 637.467 0.0 4.0 30/01/2019 08:00
42 CE , (Projects) Irrigation, Kadapa, HQ : Kadapa Kadapa Buggavanka Reservoir 0.244 592.88 60.0 115.0 16/11/2019 09:00
43 CE , (Projects) Irrigation, Kadapa, HQ : Kadapa Kadapa GANDIKOTA RESERVOIR 4.2 203.73 0.0 320.0 10/12/2018 08:00
44 CE , (Projects) Irrigation, Kadapa, HQ : Kadapa Kadapa Jerrikona Reservoir NA NA NA NA NA
45 CE , (Projects) Irrigation, Kadapa, HQ : Kadapa Kadapa Mylavaram reservoir 2.251 635.039 0.0 369.0 15/11/2018 17:00
46 CE , (Projects) Irrigation, Kadapa, HQ : Kadapa Kadapa Paidipalem Reservoir NA NA NA NA NA
47 CE , (Projects) Irrigation, Kadapa, HQ : Kadapa Kadapa Subsidary Reservoir II of TGP Main Canal 0.7583 714.44 0.0 0.0 21/02/2019 07:00
48 CE , (Projects) Irrigation, Kadapa, HQ : Kadapa Kadapa Subsidary Reservoir I of TGP Main Canal 0.48157 711.07 0.0 0.0 21/02/2019 07:00
49 CE , (Projects) Irrigation, Kadapa, HQ : Kadapa Kadapa Upper Sagileru Anicut NA NA NA NA NA
50 CE , (Projects) Irrigation, Kadapa, HQ : Kadapa Kadapa Veligallu Project 1.127 1339.05 0.0 0.0 16/11/2019 09:00
51 CE , (Projects) Irrigation, Kurnool, HQ : Kurnool Kurnool ALAGANURU BALANCING RESERVOIR 0.181 833.94 0.0 0.0 08/08/2019 13:00
52 CE , (Projects) Irrigation, Kurnool, HQ : Kurnool Kurnool Gorakallu 8.0699 826.34 12339.0 12742.0 10/09/2019 18:00
53 CE , (Projects) Irrigation, Kurnool, HQ : Kurnool Kurnool Owk Reservoir 1.73 720.14435 85.0 45.0 21/11/2018 08:00
54 CE , (Projects) Irrigation, Kurnool, HQ : Kurnool Kurnool Sunkesula 0.0 0.0 0.0 0.0 02/11/2018 16:00
55 CE , (Projects) Irrigation, Kurnool, HQ : Kurnool Kurnool Varadaraja Swamy Gudi Project 0.0142 1157.32 0.0 0.0 14/11/2018 12:00
56 CE , (Projects) Irrigation, Kurnool, HQ : Kurnool Kurnool Veligodu Balancing Reservoir 12.835 860.07 0.0 4160.0 09/10/2018 08:00
57 CE , (Projects) Irrigation, Kurnool, HQ : Kurnool Kurnool ZURRERU RESERVOIR 0.034 844.5 0.0 0.0 02/11/2018 13:00
58 CE , (Projects) Ongole, HQ : Ongole Prakasam Buggavagu Resrvoir 2.562 466.4 0.0 0.0 12/11/2018 06:00
59 CE , (Projects) Ongole, HQ : Ongole Prakasam Cumbum Tank 0.0 645.76 0.0 0.0 17/04/2019 08:00
60 CE , (Projects) Ongole, HQ : Ongole Prakasam Gundlakamma Project 1.418 69.94 0.0 0.0 19/02/2019 13:00
61 CE , (Projects) Ongole, HQ : Ongole Prakasam Mopadu Reservoir 0.0 0.0 0.0 0.0 05/07/2019 09:00
62 CE , (Projects) Ongole, HQ : Ongole Prakasam Paleru Bitragunta Anicut System 0.0 0.0 0.0 0.0 03/03/2019 06:00
63 CE , (Projects) Ongole, HQ : Ongole Prakasam Rallapadu Reservoir NA NA NA NA NA
64 CE , (Projects) Ongole, HQ : Ongole Prakasam Ramatheertham Balancing Reservoir 0.802 263.12 1144.0 243.0 24/04/2019 07:00
65 CE , (Projects) Ongole, HQ : Ongole Prakasam Veeraraghavunikota Anicut System 0.0 0.0 0.0 0.0 10/07/2019 08:00
66 CE , TGP Tirupathi, HQ : Tirupati Bahuda Reservoir Project 0.114 1996.0 0.0 0.0 07/03/2019 11:00
67 CE , TGP Tirupathi, HQ : Tirupati Chittor Araniar Project NA NA NA NA NA
68 CE , TGP Tirupathi, HQ : Tirupati Chittor Krishnapuram Reservoir 0.072 679.6 38.0 0.0 22/11/2018 07:00
69 CE , TGP Tirupathi, HQ : Tirupati Chittor Mallimadugu Reservoir Project 0.107 362.5 180.0 40.0 01/11/2019 08:00
70 CE , TGP Tirupathi, HQ : Tirupati Nellore Gandipalem 0.55 21.02 0.0 0.0 03/09/2018 00:00
71 CE , TGP Tirupathi, HQ : Tirupati Nellore Kalangi Reservoir Project 0.0 0.0 0.0 0.0 17/12/2018 08:00
72 CE , TGP Tirupathi, HQ : Tirupati Nellore KANDALERU 10.348 215.234 0.0 2433.0 11/02/2019 07:00
73 CE , TGP Tirupathi, HQ : Tirupati Nellore Kanigir Reservoir 0.18 87.7 0.0 0.0 03/09/2018 12:00
74 CE , TGP Tirupathi, HQ : Tirupati Nellore Nellore Tank 0.0 0.0 0.0 0.0 03/09/2018 10:00
75 CE , TGP Tirupathi, HQ : Tirupati Nellore SOMASILA 12.846 279.64 0.0 3555.0 26/02/2019 10:00
76 CE , TGP Tirupathi, HQ : Tirupati Nellore Survepalli Reservoir 0.55 21.02 0.0 0.0 06/10/2018 11:00
77 Enc Dowaleshwaram East Godavari Suram Palem 0.25882 343.5 66.42 66.42 06/12/2016 16:00
78 ENC Irrigation, HQ: Vijayawada Ananthapur PABR 2.032 1402.54 189.0 100.0 11/09/2019 10:00
79 ENC Irrigation, HQ: Vijayawada Kadapa Chitravathi Balancing Reservoir 2.3848 948.118 0.0 40.0 03/02/2019 10:00
80 ENC Irrigation, HQ: Vijayawada Nellore Swarnamukhi Barrage 0.002 19.78 0.0 0.0 19/12/2018 07:00
81 ENC PIP East Godavari Bhupati Palem 0.65 669.29 148.124 148.124 12/12/2018 09:00
82 ENC PIP East Godavari Musurimalli 0.356 369.75 0.0 150.0 26/12/2016 08:00
83 Flood Monitoring Cell, Vijayawada Telangana Sri Pada Yellampally NA NA NA NA NA
84 Flood Monitoring Cell, Vijayawada Telangana SRI RAM SAGAR NA NA NA NA NA

Username Password

Latest Data of levels of Major Reservoirs in the State of Andhra Pradesh

S.NO.
Reservoir
Full Reservoir Level in Ft.
Date and Time
Level in feet
Present Storage
in T.M.C.
Instant Inflow in Cusecs
Instant Outflow in Cusecs
1 SRISAILAM 885.00 18-11-2019 2:00 PM 882 198.812 8,789 10,426
2 NAGARJUNA SAGAR 590.00 18-11-2019 3:00 PM 588.4 307.283 44,050 16,680
Particulars Of Major Reservoirs As On 18/11/2019 @ 06:00 A.M. (Average Readings over past 24 Hours)
Total Storage Cap. of A.P. Reservoirs
Present Storage in T.M.C.
Flood Cushion in T.M.C
Last Year As On
18/11/2018 Storage in T.M.C
S.NO Reservoir Gross Storage
at FRL in T.M.C.
Present Storage
in T.M.C.
Average Inflow
in Cusecs
Average OutFlow
in Cusecs
Flood Cushion
in T.M.C
Last Year As On
18/11/2018
Storage in T.M.C
Basin Name
1 SRI RAM SAGAR 90.313 89.76 1,590 577 0.553 34.614 Godavari Basin
2 JAIKWAD 102.732 102.73 1,132 1,132 0.002 48.67 Godavari Basin
3 ALMATTI 129.721 0 0 0 129.721 70.12 Krishna Basin
4 NARAYANAPUR 37.646 0 0 0 37.646 24.74 Krishna Basin
5 JURALA 9.657 9.602 18,336 18,336 0.055 7.21 Krishna Basin
6 TUNGABHADRA 100.86 98.24 3,662 10,341 2.62 54.65 Krishna Basin
7 SRISAILAM 215.807 199.74 23,142 28,486 16.067 86.66 Krishna Basin
8 NAGARJUNA SAGAR 312.045 306.99 19,115 19,115 5.055 231.68 Krishna Basin
9 UJJAINI 117.24 117.24 1,933 1,601 0 97.98 Krishna Basin
10 DR.KLRS PULICHINTALA 45.77 43.06 987 6,625 2.71 4.84 Krishna Basin
11 YELERU 24.1 23.56 600 500 0.54 23.56 Other Basin
12 SOMASILA 78 68.99 7,171 7,208 9.01 39.266 Pennar Basin
13 KANDALERU 68.03 45.88 3,606 3,840 22.15 12.99 Pennar Basin
14 VELIGODU BALANCING RESERVOIR 16.95 16.34 1,800 3,320 0.61 6.306 Pennar Basin
15 CHITRAVATHI BALANCING RESERVOIR 10 6.565 450 280 3.435 2.5253 Pennar Basin
Status of Medium Irrigation Projects as on 18/11/2019
S.NO Medium Project Gross Storage
at FRL in T.M.C.
Present Storage
in T.M.C.
Average Inflow
in Cusecs
Average Outflow
in Cusecs
Flood Cushion
in T.M.C
Basin Name
1 MUSURIMALLI 1.6 0 NA NA 1.6 Godavari Basin
2 THATIPUDI RESERVOIR 3.33 0 NA NA 3.33 Gosthani Basin
3 CUMBUM TANK 2.952 0 NA NA 2.952 Gundlakamma Basin
4 BHAIRAVANI TIPPA 2.001 0 NA NA 2.001 Krishna Basin
5 GAJULADINNE PROJECT 4.5 3.912 140 140 0.588 Krishna Basin
6 RALLAPADU RESERVOIR 1.106 0 NA NA 1.106 Manneru Basin
7 MOPADU RESERVOIR 2.154 0 NA NA 2.154 Manneru Basin
8 GANDIPALEM 1.88 0 NA NA 1.88 Manneru Basin
9 MADDUVALASA 3.373 2.949 629 510 0.424 Nagavali Basin
10 VENGALARAYASAGAR PROJECT 1.683 0 NA NA 1.683 Nagavali Basin
11 PEDDAGADDA 1.07 0 NA NA 1.07 Nagavali Basin
12 ANNAMAYYA 2.231 0 NA NA 2.231 Pennar Basin
13 VELIGALLU PROJECT 4.64 0 NA NA 4.64 Pennar Basin
14 UPPER PENNAR ANICUT 1.811 0 NA NA 1.811 Pennar Basin
15 RAIWADA RESERVOIR PROJECT 3.6 0 NA NA 3.6 Sarada Basin
16 TAMMILERU 3 0 NA NA 3 Tammileru Basin
17 YERRA KALVA 4.43 0 NA NA 4.43 Yerra Kalva Basin

Daily Canal Releases of Major Projects for the Past Three Days Report

Select Project:
S.NO.
Off Take name
Design Discharge
Relaese in cusecs
18/11/2019 17/11/2019 16/11/2019
1 K.E.Main Canal 10600 NA NA NA
2 Bandar Regulator 5007 NA NA NA
3 K.E.B.Canal 2050 NA NA NA
4 Bandar Direct 3035 NA NA NA
5 Eluru Regulator 1643 NA NA NA
6 Ryves Regulator 4250 NA NA NA
7 Kankipadu Lock/Weir 1650 NA NA NA
8 Upper Pulleru / Lower Pulleru 1200 NA NA NA
9 East Side Channel 457 NA NA NA
10 Nidumolu Lock/Weir 325 NA NA NA
11 Head of Ramarajupalem Channel 370 NA NA NA
12 Veeranki Lock/Weir 637 NA NA NA
13 Bheemandi Channel 287 NA NA NA
14 Meduru Channel 228 NA NA NA
15 Valluripalem Lock/Weir 1739 NA NA NA
16 Gurivindapalli Lock /Weir 1727 NA NA NA
17 Nimagada Lock/Weir 1470 NA NA NA
18 9th Channel 385 NA NA NA
19 Nagayalanka Head Regulator 540 NA NA NA
20 Koduru Channel 460 NA NA NA
21 Komatigunta Lock/Weir 3350 NA NA NA
22 Dosapadu Channel 623 NA NA NA
23 Vyuru Weir 1000 NA NA NA
24 Marrivada Lock/Weir 640 NA NA NA
25 Balliparru Lock/Weir 3300 NA NA NA
26 Polaraju Lock/Weir 645 NA NA NA
27 Bantumalli Lock/Weir 935 NA NA NA
28 Camp Bell Canal 705 NA NA NA
29 Flume U/S of Perikeedu Bridge 825 NA NA NA
30 East Lock (Krishna Eluru Canal) 230 NA NA NA